Arctic Village, AK

8:53 AM AKST on February 13, 2016 (GMT -0900)
Arctic Village | | Change Station
CLOSE
Current Station
Airport
Location: Arctic Village,
Elevation: 2090 ft
Nearby Weather Stations

Elev 2090 ft 68.11 °N, 145.58 °W | Updated 17 minutes ago

Overcast
Overcast
10 °F
Feels Like 4 °F
N
4
Wind Variable Wind from NE

Today
High -- | Low -- °F
--% Chance of Precip.
Yesterday
High -- | Low -- °F
Precip. -- in
Pressure 29.45 in
Visibility 10.0 miles
Clouds Overcast 2300 ft
Windchill 4 °F
Dew Point 1 °F
Humidity 67%
Rainfall 0.00 in
Snow Depth Not available.
9:10 AM 4:44 PM
Waxing Crescent, 32% visible
METAR PARC 131736Z AUTO 04003KT 10SM OVC023 M12/M17 A2945 RMK AO1
Pressure 29.45 in
Visibility 10.0 miles
Clouds Overcast 2300 ft
Windchill 4 °F
Dew Point 1 °F
Humidity 67%
Rainfall 0.00 in
Snow Depth Not available.
9:10 AM 4:44 PM
Waxing Crescent, 32% visible
METAR PARC 131736Z AUTO 04003KT 10SM OVC023 M12/M17 A2945 RMK AO1

10-Day Weather Forecast

Almanac

Astronomy

Feb. 13, 2016 Rise Set
Actual Time
Civil Twilight
Nautical Twilight
Astronomical Twilight
Moon
Length of Visible Light
Length of Day
Tomorrow will be .
, % of the Moon is Illuminated

Today's Extremes

State Highs State Lows

Community

WunderPhotos

Upload Photos

1,892,623 photos uploaded!

WunderBlog® & News

Nearby

Air Quality

  Air Quality AQ Index Pollutant
Not available.

Snow Depth

Station Depth Elevation

Earthquake Activity

City Distance Mag. Time & Date
Minimum magnitude displayed is 2.5.

Coastal Water Temperatures

Place Temperature

Stations

Nearby Weather Stations

Station Location Temp. Windchill Dew Point Humidity Wind Precip. Elev Updated Type
                   

Watches & Warnings

There are currently no watches in effect.